Time;durP1;ratioP1;P1;durP2;ratioP2;P2;SDS_P1;SDS_P2;PMS_P1;PMS_P2;Temp;Humidity;BMP_temperature;BMP_pressure;BME280_temperature;BME280_humidity;BME280_pressure;Samples;Min_cycle;Max_cycle;Signal;HPM_P1;HPM_P2
2022/09/22 00:00:59;;;;;;;0.90;0.90;;;21.00;66.40;;;;;;5050930;28;44914;-77
2022/09/22 00:03:30;;;;;;;1.07;0.70;;;21.00;66.20;;;;;;5064171;28;43397;-77
2022/09/22 00:06:00;;;;;;;0.80;0.80;;;21.00;66.30;;;;;;5047305;28;43533;-76
2022/09/22 00:08:29;;;;;;;0.83;0.83;;;20.90;66.30;;;;;;5049326;28;44118;-76
2022/09/22 00:11:01;;;;;;;0.80;0.80;;;20.90;66.90;;;;;;5063938;28;44155;-78
2022/09/22 00:13:31;;;;;;;0.50;0.50;;;20.90;66.70;;;;;;5066984;28;43367;-78
2022/09/22 00:16:00;;;;;;;0.90;0.90;;;21.00;66.40;;;;;;5054609;28;43419;-76
2022/09/22 00:18:28;;;;;;;0.80;0.80;;;21.20;66.00;;;;;;5045343;28;45445;-75
2022/09/22 00:20:56;;;;;;;0.70;0.70;;;21.30;65.60;;;;;;5051584;28;44668;-76
2022/09/22 00:23:25;;;;;;;0.90;0.90;;;21.30;65.40;;;;;;5050837;28;43412;-76
2022/09/22 00:25:53;;;;;;;0.90;0.90;;;21.30;65.30;;;;;;5066171;28;44004;-76
2022/09/22 00:28:24;;;;;;;0.90;0.90;;;21.30;65.50;;;;;;5047417;28;45275;-77
2022/09/22 00:30:53;;;;;;;0.80;0.80;;;21.20;65.60;;;;;;5073934;28;44717;-75
2022/09/22 00:33:22;;;;;;;0.70;0.70;;;21.10;66.10;;;;;;5070968;28;43749;-79
2022/09/22 00:35:57;;;;;;;0.80;0.80;;;21.10;66.30;;;;;;5066007;28;43419;-78
2022/09/22 00:38:25;;;;;;;0.80;0.80;;;21.10;66.10;;;;;;5047651;28;44526;-78
2022/09/22 00:40:53;;;;;;;0.90;0.90;;;21.00;66.10;;;;;;5043140;28;44748;-78
2022/09/22 00:43:24;;;;;;;0.80;0.80;;;21.00;66.20;;;;;;5044703;28;43384;-75
2022/09/22 00:45:56;;;;;;;0.80;0.80;;;20.90;66.50;;;;;;5066112;28;43518;-78
2022/09/22 00:48:24;;;;;;;0.80;0.80;;;20.90;66.70;;;;;;5065075;28;43739;-75
2022/09/22 00:50:54;;;;;;;0.83;0.83;;;21.00;66.50;;;;;;5073578;28;44344;-78
2022/09/22 00:53:22;;;;;;;0.90;0.90;;;21.10;66.10;;;;;;5047432;28;43470;-78
2022/09/22 00:55:52;;;;;;;0.73;0.73;;;21.20;65.90;;;;;;5054651;28;43483;-77
2022/09/22 00:58:22;;;;;;;0.70;0.70;;;21.20;65.80;;;;;;5065761;28;43663;-77
2022/09/22 01:00:50;;;;;;;0.90;0.90;;;21.10;66.00;;;;;;5067046;28;43486;-78
2022/09/22 01:03:21;;;;;;;0.90;0.90;;;21.10;66.20;;;;;;5075745;28;43727;-76
2022/09/22 01:05:57;;;;;;;0.67;0.67;;;21.10;66.00;;;;;;5069182;28;43425;-75
2022/09/22 01:08:25;;;;;;;1.03;1.03;;;21.10;65.90;;;;;;5070116;28;43619;-77
2022/09/22 01:10:54;;;;;;;0.80;0.80;;;21.10;66.00;;;;;;5075233;28;43666;-76
2022/09/22 01:13:25;;;;;;;1.00;1.00;;;21.00;66.20;;;;;;5058403;28;43409;-76
2022/09/22 01:16:08;;;;;;;0.70;0.70;;;21.00;66.50;;;;;;5058899;28;43493;-75
2022/09/22 01:18:46;;;;;;;0.93;0.93;;;21.00;66.40;;;;;;5064756;28;45285;-79
2022/09/22 01:21:19;;;;;;;0.90;0.90;;;20.90;66.20;;;;;;5075187;28;43443;-76
2022/09/22 01:24:18;;;;;;;0.80;0.80;;;20.90;66.30;;;;;;5089986;28;43463;-77
2022/09/22 01:27:08;;;;;;;0.83;0.83;;;20.90;66.90;;;;;;5051662;28;43669;-77
2022/09/22 01:30:05;;;;;;;0.90;0.90;;;20.90;66.60;;;;;;5048186;28;45301;-75
2022/09/22 01:32:37;;;;;;;0.90;0.90;;;21.10;66.20;;;;;;5076231;28;43387;-75
2022/09/22 01:35:06;;;;;;;0.97;0.97;;;21.20;65.60;;;;;;5060328;28;43513;-77
2022/09/22 01:37:41;;;;;;;0.80;0.80;;;21.30;65.30;;;;;;5079757;28;43463;-76
2022/09/22 01:40:11;;;;;;;1.00;1.00;;;21.30;65.30;;;;;;5079548;28;43821;-76
2022/09/22 01:42:43;;;;;;;0.80;0.80;;;21.30;65.30;;;;;;5079107;28;43437;-75
2022/09/22 01:45:11;;;;;;;0.90;0.90;;;21.20;65.50;;;;;;5079089;28;43428;-77
2022/09/22 01:47:42;;;;;;;1.00;1.00;;;21.10;65.90;;;;;;5060170;28;43381;-76
2022/09/22 01:50:13;;;;;;;0.90;0.90;;;21.10;66.40;;;;;;5078843;28;43631;-77
2022/09/22 01:52:41;;;;;;;1.10;1.10;;;21.10;66.30;;;;;;5067040;28;43487;-76
2022/09/22 01:55:11;;;;;;;0.80;0.80;;;21.00;66.10;;;;;;5061181;28;43412;-76
2022/09/22 01:57:43;;;;;;;0.80;0.80;;;21.00;66.20;;;;;;5080228;28;43406;-78
2022/09/22 02:00:11;;;;;;;1.07;1.07;;;20.90;66.40;;;;;;5054383;28;45555;-77
2022/09/22 02:02:43;;;;;;;1.10;0.70;;;20.90;66.70;;;;;;5078356;28;43439;-78
2022/09/22 02:05:13;;;;;;;0.90;0.90;;;20.90;66.50;;;;;;5079155;28;43478;-78
2022/09/22 02:07:42;;;;;;;0.90;0.90;;;20.90;66.30;;;;;;5093727;28;43454;-76
2022/09/22 02:10:11;;;;;;;0.80;0.80;;;20.90;66.30;;;;;;5078890;28;43604;-77
2022/09/22 02:12:39;;;;;;;0.90;0.90;;;20.90;66.90;;;;;;5053862;28;44646;-78
2022/09/22 02:15:58;;;;;;;0.90;0.90;;;20.90;66.90;;;;;;5077922;28;43480;-76
2022/09/22 02:18:01;;;;;;;0.87;0.87;;;20.90;67.30;;;;;;5076925;28;43463;-79
2022/09/22 02:20:29;;;;;;;0.90;0.90;;;20.90;66.50;;;;;;5079758;28;43809;-78
2022/09/22 02:22:57;;;;;;;0.80;0.80;;;20.90;66.50;;;;;;5057814;28;44275;-76
2022/09/22 02:25:25;;;;;;;0.83;0.83;;;20.90;66.90;;;;;;5060122;28;43416;-78
2022/09/22 02:27:54;;;;;;;0.90;0.90;;;20.90;67.10;;;;;;5067854;28;43474;-76
2022/09/22 02:30:22;;;;;;;0.90;0.90;;;21.00;66.70;;;;;;5059682;28;44977;-76
2022/09/22 02:32:51;;;;;;;0.90;0.90;;;21.10;66.20;;;;;;5054418;28;43657;-76
2022/09/22 02:35:20;;;;;;;0.70;0.70;;;21.20;65.60;;;;;;5058875;28;43704;-78
2022/09/22 02:37:49;;;;;;;1.00;1.00;;;21.40;65.30;;;;;;5060555;28;43381;-78
2022/09/22 02:40:22;;;;;;;0.93;0.93;;;21.40;65.10;;;;;;5058791;28;45831;-77
2022/09/22 02:42:52;;;;;;;0.90;0.90;;;21.40;65.10;;;;;;5067524;28;43869;-77
2022/09/22 02:45:22;;;;;;;0.93;0.93;;;21.20;65.10;;;;;;5079153;28;43456;-77
2022/09/22 02:47:51;;;;;;;0.83;0.83;;;21.20;65.50;;;;;;5078102;28;43440;-77
2022/09/22 02:50:22;;;;;;;1.07;1.07;;;21.10;66.10;;;;;;5058492;28;45313;-78
2022/09/22 02:52:51;;;;;;;0.80;0.80;;;21.10;66.00;;;;;;5053640;28;44416;-78
2022/09/22 02:55:19;;;;;;;0.70;0.70;;;21.10;66.10;;;;;;5073003;28;43722;-77
2022/09/22 02:57:47;;;;;;;1.10;1.10;;;21.00;65.90;;;;;;5060708;28;43508;-79
2022/09/22 03:00:15;;;;;;;0.87;0.87;;;20.90;66.20;;;;;;5070875;28;43587;-75
2022/09/22 03:02:43;;;;;;;0.90;0.90;;;20.90;66.60;;;;;;5056416;28;44285;-77
2022/09/22 03:05:11;;;;;;;0.90;0.90;;;20.90;66.40;;;;;;5053763;28;43396;-78
2022/09/22 03:07:40;;;;;;;0.80;0.80;;;20.90;66.30;;;;;;5074717;28;43487;-78
2022/09/22 03:10:09;;;;;;;0.80;0.80;;;20.90;66.30;;;;;;5078814;28;43868;-76
2022/09/22 03:12:41;;;;;;;0.90;0.90;;;20.90;66.50;;;;;;5079874;28;43573;-76
2022/09/22 03:15:29;;;;;;;0.90;0.90;;;20.90;66.90;;;;;;5077548;28;43422;-77
2022/09/22 03:17:57;;;;;;;1.00;1.00;;;21.00;66.60;;;;;;5079998;28;43448;-75
2022/09/22 03:20:25;;;;;;;0.80;0.80;;;21.10;66.30;;;;;;5060924;28;45571;-75
2022/09/22 03:22:54;;;;;;;0.90;0.90;;;21.20;65.70;;;;;;5074439;28;43432;-75
2022/09/22 03:25:22;;;;;;;0.90;0.90;;;21.20;65.50;;;;;;5060711;28;43379;-76
2022/09/22 03:27:51;;;;;;;0.80;0.80;;;21.20;65.40;;;;;;5079981;28;43518;-78
2022/09/22 03:30:19;;;;;;;0.90;0.90;;;21.10;65.50;;;;;;5080237;28;43565;-76
2022/09/22 03:32:47;;;;;;;0.90;0.90;;;21.10;65.70;;;;;;5077845;28;43420;-76
2022/09/22 03:35:15;;;;;;;0.90;0.90;;;21.00;66.20;;;;;;5084554;28;43411;-77
2022/09/22 03:37:43;;;;;;;0.97;0.97;;;21.00;66.40;;;;;;5060045;28;43425;-76
2022/09/22 03:40:12;;;;;;;0.90;0.90;;;21.00;66.20;;;;;;5061601;28;43808;-76
2022/09/22 03:42:42;;;;;;;1.13;1.13;;;20.90;66.10;;;;;;5075496;28;43384;-77
2022/09/22 03:45:11;;;;;;;1.30;1.20;;;20.90;66.20;;;;;;5069617;28;43940;-77
2022/09/22 03:47:39;;;;;;;1.47;1.33;;;20.90;66.80;;;;;;5088869;28;43446;-77
2022/09/22 03:50:08;;;;;;;1.63;1.57;;;20.90;66.70;;;;;;5087710;28;43676;-76
2022/09/22 03:52:36;;;;;;;2.90;1.90;;;21.00;66.40;;;;;;5057431;28;44760;-78
2022/09/22 03:55:05;;;;;;;2.80;1.93;;;21.10;66.10;;;;;;5073019;28;43521;-79
2022/09/22 03:57:36;;;;;;;2.27;1.90;;;21.10;66.60;;;;;;5070609;28;44028;-77
2022/09/22 04:00:04;;;;;;;2.40;2.10;;;21.10;65.70;;;;;;5069781;28;43883;-77
2022/09/22 04:02:40;;;;;;;5.20;2.10;;;21.10;66.10;;;;;;5070703;28;43422;-78
2022/09/22 04:05:09;;;;;;;2.50;2.10;;;21.10;66.10;;;;;;5075957;28;43515;-78
2022/09/22 04:07:37;;;;;;;2.00;1.90;;;21.10;66.00;;;;;;5081108;28;43455;-76
2022/09/22 04:10:06;;;;;;;2.30;1.90;;;21.00;65.90;;;;;;5063554;28;45670;-78
2022/09/22 04:12:36;;;;;;;2.73;2.40;;;20.90;66.00;;;;;;5081520;28;43425;-76
2022/09/22 04:15:05;;;;;;;3.00;2.40;;;20.90;66.60;;;;;;5077540;28;43360;-76
2022/09/22 04:17:33;;;;;;;2.70;2.20;;;20.90;66.40;;;;;;5078714;28;43438;-77
2022/09/22 04:20:01;;;;;;;3.53;2.43;;;20.90;66.30;;;;;;5082113;28;43850;-77
2022/09/22 04:22:29;;;;;;;2.47;2.33;;;20.90;66.20;;;;;;5081639;28;43491;-77
2022/09/22 04:24:57;;;;;;;2.70;2.50;;;20.90;66.30;;;;;;5083473;28;43418;-77
2022/09/22 04:27:25;;;;;;;3.00;2.70;;;20.90;66.90;;;;;;5066671;28;43798;-77
2022/09/22 04:29:54;;;;;;;3.60;2.37;;;20.90;66.80;;;;;;5083577;28;43841;-77
2022/09/22 04:32:22;;;;;;;2.90;2.70;;;21.00;66.50;;;;;;5083603;28;43422;-76
2022/09/22 04:34:50;;;;;;;2.90;2.57;;;21.10;66.10;;;;;;5084734;28;43336;-77
2022/09/22 04:37:18;;;;;;;3.87;2.80;;;21.10;65.80;;;;;;5085073;28;43404;-77
2022/09/22 04:39:46;;;;;;;2.97;2.60;;;21.10;65.60;;;;;;5067989;28;46599;-77
2022/09/22 04:42:14;;;;;;;3.10;2.60;;;21.10;66.10;;;;;;5089193;28;43504;-77
2022/09/22 04:44:42;;;;;;;2.87;2.60;;;21.00;66.00;;;;;;5064532;28;43349;-77
2022/09/22 04:47:11;;;;;;;2.93;2.63;;;21.00;65.90;;;;;;5064829;28;43449;-76
2022/09/22 04:49:39;;;;;;;2.60;2.40;;;21.00;65.90;;;;;;5081209;28;44873;-77
2022/09/22 04:52:08;;;;;;;2.80;2.60;;;21.00;66.00;;;;;;5081315;28;43423;-77
2022/09/22 04:54:36;;;;;;;5.13;3.23;;;20.90;66.30;;;;;;5083650;28;43410;-78
2022/09/22 04:57:04;;;;;;;5.27;2.77;;;20.90;66.60;;;;;;5083397;28;43761;-77
2022/09/22 04:59:34;;;;;;;3.00;2.70;;;20.90;66.30;;;;;;5082138;28;43599;-76
2022/09/22 05:02:02;;;;;;;3.20;2.50;;;20.90;66.30;;;;;;5091450;28;43384;-77
2022/09/22 05:04:31;;;;;;;2.70;2.50;;;20.90;66.30;;;;;;5082711;28;43399;-76
2022/09/22 05:06:59;;;;;;;2.80;2.57;;;20.80;66.60;;;;;;5063295;28;43568;-76
2022/09/22 05:09:28;;;;;;;2.90;2.63;;;20.90;66.90;;;;;;5092581;28;45670;-76
2022/09/22 05:12:00;;;;;;;2.50;2.30;;;20.90;66.60;;;;;;5082039;28;43410;-77
2022/09/22 05:14:28;;;;;;;2.93;2.73;;;21.00;66.20;;;;;;5062918;28;43408;-75
2022/09/22 05:16:56;;;;;;;3.13;2.60;;;21.10;66.00;;;;;;5085999;28;43982;-77
2022/09/22 05:19:24;;;;;;;3.47;2.53;;;21.10;65.70;;;;;;5083212;28;43684;-77
2022/09/22 05:21:53;;;;;;;3.23;2.47;;;21.10;66.10;;;;;;5088766;28;44409;-76
2022/09/22 05:24:21;;;;;;;2.63;2.43;;;21.10;66.20;;;;;;5065439;28;43914;-77
2022/09/22 05:26:49;;;;;;;2.97;2.60;;;21.00;65.90;;;;;;5083103;28;43353;-76
2022/09/22 05:29:17;;;;;;;2.80;2.47;;;21.00;65.90;;;;;;5083559;28;43832;-76
2022/09/22 05:31:46;;;;;;;3.23;2.67;;;20.90;65.90;;;;;;5082408;28;43371;-78
2022/09/22 05:34:14;;;;;;;2.63;2.43;;;20.90;66.30;;;;;;5064596;28;43381;-76
2022/09/22 05:36:42;;;;;;;2.37;2.27;;;20.90;66.40;;;;;;5060678;28;43572;-78
2022/09/22 05:39:11;;;;;;;2.60;2.40;;;20.90;66.20;;;;;;5090896;28;45624;-77
2022/09/22 05:41:39;;;;;;;2.10;2.00;;;20.90;66.20;;;;;;5064374;28;44651;-76
2022/09/22 05:44:07;;;;;;;2.80;2.60;;;20.80;66.20;;;;;;5089993;28;43421;-78
2022/09/22 05:46:35;;;;;;;2.90;2.70;;;20.80;66.70;;;;;;5084722;28;43416;-76
2022/09/22 05:49:03;;;;;;;2.90;2.43;;;20.80;66.80;;;;;;5060072;28;44140;-76
2022/09/22 05:51:31;;;;;;;2.60;2.40;;;20.90;66.50;;;;;;5043614;28;43813;-76
2022/09/22 05:53:59;;;;;;;2.40;2.30;;;21.00;66.00;;;;;;5055137;28;43455;-76
2022/09/22 05:56:28;;;;;;;4.03;2.30;;;21.20;65.60;;;;;;5063070;28;43444;-77
2022/09/22 05:58:56;;;;;;;2.80;2.60;;;21.20;65.40;;;;;;5059822;28;43897;-77
2022/09/22 06:01:24;;;;;;;2.90;2.70;;;21.20;65.30;;;;;;5054426;28;43406;-76
2022/09/22 06:03:52;;;;;;;2.70;2.50;;;21.10;65.40;;;;;;5044513;28;43388;-75
2022/09/22 06:06:20;;;;;;;3.77;2.83;;;21.10;65.60;;;;;;5037313;28;43444;-75
2022/09/22 06:08:49;;;;;;;3.47;2.60;;;21.00;66.00;;;;;;5060724;28;44015;-75
2022/09/22 06:11:17;;;;;;;2.80;2.60;;;20.90;66.20;;;;;;5050253;28;43443;-76
2022/09/22 06:13:49;;;;;;;2.43;2.30;;;20.90;66.10;;;;;;5028963;28;43532;-76
2022/09/22 06:16:17;;;;;;;2.53;2.43;;;20.90;66.10;;;;;;5056126;28;43393;-76
2022/09/22 06:18:46;;;;;;;2.43;2.33;;;20.90;66.20;;;;;;5060201;28;43693;-77
2022/09/22 06:21:14;;;;;;;2.40;2.30;;;20.80;66.40;;;;;;5065482;28;43799;-75
2022/09/22 06:23:42;;;;;;;2.70;2.50;;;20.80;66.70;;;;;;5059389;28;43367;-77
2022/09/22 06:26:10;;;;;;;2.63;2.43;;;20.80;67.10;;;;;;5063059;28;43395;-77
2022/09/22 06:28:38;;;;;;;2.27;2.17;;;20.80;66.30;;;;;;5029103;28;45370;-77
2022/09/22 06:31:07;;;;;;;2.47;2.27;;;20.80;66.40;;;;;;5058982;28;43403;-77
2022/09/22 06:33:35;;;;;;;2.60;2.40;;;20.70;66.60;;;;;;5057289;28;43447;-75
2022/09/22 06:36:06;;;;;;;2.87;2.67;;;20.80;66.90;;;;;;5055934;28;43788;-76
2022/09/22 06:38:34;;;;;;;2.27;2.17;;;20.90;66.70;;;;;;5048440;28;43756;-76
2022/09/22 06:41:03;;;;;;;2.87;2.67;;;21.00;66.20;;;;;;5036526;28;45049;-76
2022/09/22 06:43:36;;;;;;;2.03;1.93;;;21.20;65.70;;;;;;5044627;28;43422;-76
2022/09/22 06:46:04;;;;;;;2.57;2.37;;;21.20;65.40;;;;;;5036891;28;43559;-76
2022/09/22 06:48:34;;;;;;;2.30;2.20;;;21.20;65.30;;;;;;5044589;28;45723;-76
2022/09/22 06:51:01;;;;;;;2.50;2.30;;;21.10;65.20;;;;;;5067541;28;44703;-75
2022/09/22 06:53:29;;;;;;;2.60;2.50;;;21.10;65.40;;;;;;5068415;28;43493;-76
2022/09/22 06:56:02;;;;;;;2.10;2.00;;;21.00;65.70;;;;;;5068802;28;43376;-77
2022/09/22 06:58:30;;;;;;;2.33;2.20;;;20.90;66.20;;;;;;5091448;28;44401;-76
2022/09/22 07:01:14;;;;;;;2.33;2.23;;;20.90;66.20;;;;;;5084038;28;43757;-76
2022/09/22 07:03:44;;;;;;;2.20;2.10;;;20.90;66.10;;;;;;5092694;28;43329;-77
2022/09/22 07:06:16;;;;;;;2.40;2.30;;;20.80;66.10;;;;;;5067188;28;43460;-76
2022/09/22 07:08:48;;;;;;;2.20;2.10;;;20.80;66.40;;;;;;5086013;28;43863;-76
2022/09/22 07:11:17;;;;;;;2.43;2.23;;;20.80;66.70;;;;;;5072590;28;44895;-77
2022/09/22 07:13:45;;;;;;;2.47;2.27;;;20.80;66.40;;;;;;5090574;28;43387;-78
2022/09/22 07:16:16;;;;;;;2.30;2.20;;;20.80;66.40;;;;;;5090647;28;43611;-77
2022/09/22 07:18:46;;;;;;;2.80;2.33;;;20.70;66.20;;;;;;5065253;28;45442;-77
2022/09/22 07:21:19;;;;;;;2.07;1.97;;;20.70;66.50;;;;;;5087929;28;43393;-76
2022/09/22 07:23:48;;;;;;;2.57;2.37;;;20.70;66.90;;;;;;5065390;28;43408;-77
2022/09/22 07:26:17;;;;;;;2.37;2.20;;;20.80;66.60;;;;;;5088821;28;43421;-76
2022/09/22 07:28:49;;;;;;;2.00;1.90;;;20.90;66.20;;;;;;5073485;28;45373;-79
2022/09/22 07:31:17;;;;;;;2.47;2.27;;;21.10;65.80;;;;;;5067437;28;43419;-76
2022/09/22 07:33:47;;;;;;;2.23;2.13;;;21.20;65.50;;;;;;5086104;28;43340;-77
2022/09/22 07:36:16;;;;;;;2.30;2.20;;;21.10;65.30;;;;;;5092386;28;43443;-76
2022/09/22 07:38:47;;;;;;;2.10;2.00;;;21.10;65.40;;;;;;5087119;28;45769;-76
2022/09/22 07:41:17;;;;;;;2.07;1.97;;;21.00;65.50;;;;;;5088191;28;43384;-76
2022/09/22 07:43:46;;;;;;;2.50;2.30;;;20.90;65.70;;;;;;5065604;28;43415;-75
2022/09/22 07:46:13;;;;;;;2.03;1.93;;;20.90;66.30;;;;;;5067654;28;43467;-75
2022/09/22 07:48:44;;;;;;;2.30;2.20;;;20.90;66.30;;;;;;5070747;28;45326;-76
2022/09/22 07:51:17;;;;;;;2.13;2.03;;;20.80;66.80;;;;;;5057825;28;43860;-77
2022/09/22 07:53:45;;;;;;;2.00;1.90;;;20.80;66.10;;;;;;5079071;28;43381;-76
2022/09/22 07:56:14;;;;;;;2.27;2.17;;;20.80;66.40;;;;;;5077823;28;43418;-76
2022/09/22 07:58:44;;;;;;;2.23;2.13;;;20.70;66.70;;;;;;5077340;28;43683;-76
2022/09/22 08:01:12;;;;;;;2.00;1.93;;;20.70;66.50;;;;;;5063195;28;44710;-75
2022/09/22 08:03:40;;;;;;;2.00;1.90;;;20.70;66.30;;;;;;5075491;28;43444;-75
2022/09/22 08:06:10;;;;;;;2.10;2.00;;;20.70;66.40;;;;;;5079322;28;43371;-77
2022/09/22 08:08:41;;;;;;;1.90;1.90;;;20.70;66.50;;;;;;5077192;28;43735;-77
2022/09/22 08:11:12;;;;;;;1.83;1.73;;;20.70;66.60;;;;;;5074648;28;43415;-76
2022/09/22 08:13:40;;;;;;;2.50;1.87;;;20.60;66.60;;;;;;5078256;28;43467;-78
2022/09/22 08:16:09;;;;;;;1.70;1.70;;;20.60;66.60;;;;;;5065709;28;43690;-77
2022/09/22 08:18:38;;;;;;;1.90;1.80;;;20.60;66.70;;;;;;5080229;28;43845;-77
2022/09/22 08:21:06;;;;;;;2.20;2.10;;;20.60;66.70;;;;;;5077165;28;43409;-76
2022/09/22 08:23:36;;;;;;;2.23;2.13;;;20.60;66.80;;;;;;5082125;28;43382;-77
2022/09/22 08:26:06;;;;;;;2.10;2.00;;;20.60;66.80;;;;;;5079583;28;43926;-76
2022/09/22 08:28:35;;;;;;;2.13;2.03;;;20.60;67.50;;;;;;5080728;28;43591;-76
2022/09/22 08:31:03;;;;;;;1.97;1.90;;;20.70;67.20;;;;;;5063724;28;44646;-75
2022/09/22 08:33:33;;;;;;;1.70;1.60;;;20.90;66.80;;;;;;5086191;28;43496;-76
2022/09/22 08:36:02;;;;;;;1.90;1.80;;;21.10;66.10;;;;;;5088978;28;43395;-76
2022/09/22 08:38:31;;;;;;;2.00;1.90;;;21.20;65.40;;;;;;5078430;28;43719;-76
2022/09/22 08:41:11;;;;;;;2.10;2.00;;;21.40;64.80;;;;;;5076153;28;43371;-76
2022/09/22 08:43:47;;;;;;;1.80;1.80;;;21.60;64.20;;;;;;5063817;28;43467;-77
2022/09/22 08:46:15;;;;;;;1.60;1.60;;;21.70;63.70;;;;;;5081380;28;43476;-76
2022/09/22 08:54:18;;;;;;;1.70;1.70;;;22.00;62.80;;;;;;5081277;28;43435;-77
2022/09/22 08:56:56;;;;;;;2.00;1.90;;;22.10;62.70;;;;;;5082510;28;43411;-77
2022/09/22 08:59:26;;;;;;;1.70;1.70;;;22.10;62.40;;;;;;5069297;28;45252;-77
2022/09/22 09:02:02;;;;;;;1.60;1.60;;;22.10;62.60;;;;;;5056739;28;44633;-77
2022/09/22 09:04:49;;;;;;;1.60;1.60;;;22.00;62.80;;;;;;5081513;28;43512;-76
2022/09/22 09:07:21;;;;;;;1.77;1.77;;;21.80;63.30;;;;;;5082852;28;43503;-76
2022/09/22 09:09:54;;;;;;;1.70;1.70;;;21.70;63.70;;;;;;5062659;28;44084;-77
2022/09/22 09:12:36;;;;;;;1.70;1.70;;;21.60;64.00;;;;;;5082677;28;43370;-75
2022/09/22 09:15:19;;;;;;;2.27;2.10;;;21.50;64.10;;;;;;5081929;28;43403;-77
2022/09/22 09:17:47;;;;;;;1.63;1.63;;;21.40;64.50;;;;;;5064956;28;43421;-78
2022/09/22 09:20:16;;;;;;;1.73;1.63;;;21.30;65.10;;;;;;5082848;28;43874;-76
2022/09/22 09:22:47;;;;;;;1.60;1.60;;;21.20;65.30;;;;;;5095282;28;44734;-77
2022/09/22 09:25:19;;;;;;;1.70;1.70;;;21.20;65.20;;;;;;5083405;28;43467;-77
2022/09/22 09:27:55;;;;;;;1.90;1.80;;;21.10;65.40;;;;;;5083003;28;43345;-77
2022/09/22 09:30:24;;;;;;;1.50;1.50;;;21.00;65.60;;;;;;5082502;28;43904;-77
2022/09/22 09:32:52;;;;;;;1.70;1.70;;;20.90;66.10;;;;;;5081521;28;43381;-77
2022/09/22 09:35:25;;;;;;;1.70;1.70;;;21.00;65.90;;;;;;5064454;28;43392;-77
2022/09/22 09:37:54;;;;;;;1.70;1.70;;;21.20;65.90;;;;;;5082033;28;43375;-77
2022/09/22 09:40:22;;;;;;;1.53;1.50;;;21.30;65.20;;;;;;5093240;28;44710;-77
2022/09/22 09:42:57;;;;;;;1.70;1.70;;;21.40;64.90;;;;;;5083073;28;43377;-77
2022/09/22 09:45:32;;;;;;;1.60;1.60;;;21.40;64.90;;;;;;5082346;28;43476;-78
2022/09/22 09:48:10;;;;;;;1.60;1.60;;;21.30;64.80;;;;;;5057428;28;43360;-75
2022/09/22 09:50:38;;;;;;;1.30;1.30;;;21.20;65.00;;;;;;5062686;28;44067;-75
2022/09/22 09:53:08;;;;;;;1.30;1.30;;;21.10;65.60;;;;;;5065254;28;44697;-76
2022/09/22 09:55:36;;;;;;;1.60;1.60;;;21.10;65.90;;;;;;5085578;28;43410;-76
2022/09/22 09:58:10;;;;;;;1.50;1.50;;;21.00;65.70;;;;;;5069011;28;43745;-78
2022/09/22 10:00:53;;;;;;;1.50;1.50;;;21.00;65.80;;;;;;5067828;28;45815;-78
2022/09/22 10:03:24;;;;;;;1.80;1.70;;;20.90;65.90;;;;;;5066766;28;44401;-75
2022/09/22 10:05:59;;;;;;;1.30;1.30;;;20.90;66.40;;;;;;5085398;28;43430;-76
2022/09/22 10:08:27;;;;;;;1.50;1.50;;;20.90;66.50;;;;;;5068105;28;43472;-76
2022/09/22 10:10:56;;;;;;;1.30;1.30;;;21.00;66.30;;;;;;5066771;28;46392;-75
2022/09/22 10:13:29;;;;;;;1.40;1.40;;;21.10;65.90;;;;;;5081659;28;43371;-74
2022/09/22 10:16:06;;;;;;;1.70;1.70;;;21.10;65.70;;;;;;5061431;28;43445;-74
2022/09/22 10:18:36;;;;;;;1.50;1.50;;;21.10;65.90;;;;;;5068085;28;43847;-74
2022/09/22 10:21:05;;;;;;;1.37;1.37;;;21.00;66.10;;;;;;5085931;28;43859;-75
2022/09/22 10:23:34;;;;;;;1.57;1.57;;;21.00;65.90;;;;;;5067151;28;43763;-74
2022/09/22 10:26:17;;;;;;;1.43;1.43;;;21.00;66.10;;;;;;5086162;28;43429;-75
2022/09/22 10:28:49;;;;;;;1.50;1.50;;;21.00;66.20;;;;;;5082519;28;43504;-78
2022/09/22 10:31:20;;;;;;;1.47;1.47;;;20.90;66.30;;;;;;5084197;28;43940;-77
2022/09/22 10:33:55;;;;;;;1.30;1.30;;;20.90;66.50;;;;;;5085091;28;43439;-75
2022/09/22 10:36:24;;;;;;;2.07;1.27;;;20.90;66.60;;;;;;5086299;28;43459;-78
2022/09/22 10:38:53;;;;;;;1.23;1.23;;;20.90;66.60;;;;;;5074876;28;43762;-77
2022/09/22 10:41:30;;;;;;;1.20;1.20;;;20.90;66.60;;;;;;5085189;28;43699;-74
2022/09/22 10:44:00;;;;;;;1.47;1.47;;;20.80;66.70;;;;;;5084264;28;44193;-75
2022/09/22 10:47:02;;;;;;;1.40;1.40;;;20.80;66.70;;;;;;5066528;28;43429;-77
2022/09/22 10:49:40;;;;;;;1.50;1.50;;;20.90;66.60;;;;;;5084840;28;43507;-76
2022/09/22 10:52:12;;;;;;;1.30;1.30;;;21.00;66.10;;;;;;5079687;28;43620;-77
2022/09/22 10:54:54;;;;;;;1.40;1.40;;;21.10;66.10;;;;;;5091114;28;43434;-77
2022/09/22 10:57:44;;;;;;;1.40;1.40;;;21.00;66.20;;;;;;5086895;28;43439;-77
2022/09/22 11:00:15;;;;;;;1.40;1.40;;;21.00;66.30;;;;;;5099875;28;43545;-77
2022/09/22 11:03:13;;;;;;;1.37;1.37;;;21.00;66.30;;;;;;5063861;28;45426;-77
2022/09/22 11:14:19;;;;;;;1.30;1.30;;;20.90;66.60;;;;;;5066590;28;44954;-77
2022/09/22 11:16:59;;;;;;;1.40;1.40;;;20.90;66.70;;;;;;5084724;28;43445;-77
2022/09/22 11:19:49;;;;;;;1.20;1.20;;;20.90;66.80;;;;;;5085487;28;44282;-76
2022/09/22 11:22:38;;;;;;;1.30;1.30;;;20.80;67.50;;;;;;5084813;28;43380;-77
2022/09/22 11:25:14;;;;;;;1.27;1.27;;;20.80;67.00;;;;;;5078839;28;43838;-75
2022/09/22 11:27:50;;;;;;;1.40;1.40;;;20.90;66.90;;;;;;5065213;28;44734;-76
2022/09/22 11:30:20;;;;;;;1.30;1.30;;;20.90;66.50;;;;;;5064768;28;43509;-74
2022/09/22 11:33:12;;;;;;;1.20;1.20;;;21.10;66.10;;;;;;5083549;28;43451;-76
2022/09/22 11:35:44;;;;;;;1.30;1.30;;;21.20;65.80;;;;;;5078133;28;43602;-76
2022/09/22 11:38:39;;;;;;;1.50;1.50;;;21.10;65.90;;;;;;5090859;28;43415;-76
2022/09/22 11:41:24;;;;;;;1.30;1.30;;;21.10;66.00;;;;;;5091396;28;43368;-77
2022/09/22 11:44:28;;;;;;;1.33;1.33;;;21.00;66.20;;;;;;5098856;28;43451;-75
2022/09/22 11:47:05;;;;;;;1.40;1.40;;;20.90;66.50;;;;;;5089904;28;43607;-76
2022/09/22 11:49:43;;;;;;;1.20;1.20;;;20.90;67.30;;;;;;5084521;28;43367;-76
2022/09/22 11:52:18;;;;;;;1.40;1.40;;;20.90;66.50;;;;;;5083225;28;43443;-75
2022/09/22 11:54:53;;;;;;;1.40;1.40;;;20.90;66.60;;;;;;5089812;28;43939;-76
2022/09/22 11:57:23;;;;;;;1.30;1.30;;;20.80;66.70;;;;;;5069834;28;45619;-75
2022/09/22 11:59:52;;;;;;;1.20;1.20;;;20.80;66.90;;;;;;5088403;28;43359;-77
2022/09/22 12:02:25;;;;;;;1.47;1.47;;;20.90;66.90;;;;;;5088559;28;43632;-77
2022/09/22 12:04:57;;;;;;;1.20;1.20;;;21.00;66.60;;;;;;5068068;28;43405;-78
2022/09/22 12:07:27;;;;;;;1.50;1.50;;;21.10;66.10;;;;;;5087550;28;44028;-77
2022/09/22 12:09:56;;;;;;;1.20;1.20;;;21.10;65.80;;;;;;5070020;28;43759;-77
2022/09/22 12:12:24;;;;;;;1.10;1.10;;;21.10;66.00;;;;;;5088076;28;43431;-76
2022/09/22 12:14:57;;;;;;;1.47;1.47;;;21.10;66.20;;;;;;5070315;28;43457;-75
2022/09/22 12:17:27;;;;;;;1.30;1.30;;;21.00;66.40;;;;;;5088606;28;43587;-76
2022/09/22 12:19:59;;;;;;;1.50;1.50;;;20.90;66.50;;;;;;5088107;28;43388;-76
2022/09/22 12:22:30;;;;;;;1.50;1.40;;;20.90;66.60;;;;;;5083548;28;43383;-77
2022/09/22 12:24:58;;;;;;;1.37;1.37;;;20.90;66.80;;;;;;5062946;28;43489;-77
2022/09/22 12:27:27;;;;;;;1.33;1.33;;;20.90;66.90;;;;;;5087962;28;43597;-77
2022/09/22 12:29:56;;;;;;;1.13;1.13;;;20.90;66.90;;;;;;5087721;28;43374;-77
2022/09/22 12:32:26;;;;;;;1.30;1.30;;;20.80;66.90;;;;;;5087317;28;43367;-77
2022/09/22 12:34:57;;;;;;;1.33;1.33;;;20.80;66.90;;;;;;5064844;28;43400;-77
2022/09/22 12:37:28;;;;;;;1.07;1.07;;;20.80;67.00;;;;;;5088570;28;43854;-76
2022/09/22 12:39:56;;;;;;;1.17;1.17;;;20.80;67.00;;;;;;5066278;28;43853;-77
2022/09/22 12:42:27;;;;;;;1.20;1.20;;;20.80;67.00;;;;;;5070530;28;43439;-76
2022/09/22 12:44:57;;;;;;;1.20;1.20;;;20.80;67.10;;;;;;5087683;28;43430;-76
2022/09/22 12:47:28;;;;;;;1.10;1.10;;;20.80;67.10;;;;;;5069695;28;45655;-77
2022/09/22 12:49:58;;;;;;;1.10;1.10;;;20.90;66.80;;;;;;5095376;28;43927;-76
2022/09/22 12:52:54;;;;;;;1.30;1.30;;;21.00;66.50;;;;;;5087782;28;43399;-76
2022/09/22 12:55:37;;;;;;;1.23;1.23;;;21.10;66.10;;;;;;5086983;28;43408;-77
2022/09/22 12:58:24;;;;;;;1.17;1.17;;;21.10;65.80;;;;;;5092539;28;45680;-75
2022/09/22 13:00:52;;;;;;;1.13;1.13;;;21.10;66.10;;;;;;5087262;28;43379;-78
2022/09/22 13:03:39;;;;;;;1.27;1.27;;;21.00;66.20;;;;;;5088422;28;43344;-77
2022/09/22 13:06:41;;;;;;;1.20;1.20;;;21.00;66.50;;;;;;5069474;28;43531;-77
2022/09/22 13:09:19;;;;;;;1.20;1.20;;;20.90;66.60;;;;;;5097188;28;46407;-76
2022/09/22 13:12:25;;;;;;;1.17;1.17;;;20.90;66.80;;;;;;5083543;28;43439;-76
2022/09/22 13:14:57;;;;;;;1.00;1.00;;;20.90;66.80;;;;;;5003506;28;43509;-76
2022/09/22 13:17:39;;;;;;;1.33;1.33;;;20.90;66.90;;;;;;5006884;28;43480;-76
2022/09/22 13:20:20;;;;;;;1.20;1.20;;;20.80;66.90;;;;;;5032634;28;45654;-77
2022/09/22 13:22:49;;;;;;;1.30;1.30;;;20.90;66.90;;;;;;5086493;28;43418;-76
2022/09/22 13:25:26;;;;;;;1.13;1.13;;;20.90;66.60;;;;;;5088007;28;43340;-77